Terminal Aerodrome Forecast
Issued by NWS Lake Charles, LA

Home | Current Version | Previous Version | Text Only | Print | Product List | Glossary On
Versions: 1 2 3 4 5 6 7 8 9 10 11 12 13 14 15 16 17 18
000
FTUS44 KLCH 062322
TAFBPT
TAF
KBPT 062322Z 0700/0724 13015KT P6SM BKN025
     FM070100 13010KT P6SM SCT025 BKN250
     FM070600 14007KT P6SM BKN025
     FM071500 15013KT P6SM SCT025 BKN250
     FM071800 16015G20KT P6SM VCSH BKN030=

USA.gov is the U.S. government's official web portal to all federal, state and local government web resources and services.